sensor_id;sensor_type;location;lat;lon;timestamp;P1;durP1;ratioP1;P2;durP2;ratioP2
77948;SDS011;67146;51.236;-0.336;2023-11-22T00:02:35;8.52;;;1.15;;
77948;SDS011;67146;51.236;-0.336;2023-11-22T00:05:45;7.40;;;0.77;;
77948;SDS011;67146;51.236;-0.336;2023-11-22T00:08:37;7.53;;;1.27;;
77948;SDS011;67146;51.236;-0.336;2023-11-22T00:11:26;8.07;;;1.02;;
77948;SDS011;67146;51.236;-0.336;2023-11-22T00:14:19;6.10;;;0.73;;
77948;SDS011;67146;51.236;-0.336;2023-11-22T00:16:50;7.97;;;0.85;;
77948;SDS011;67146;51.236;-0.336;2023-11-22T00:22:37;8.35;;;0.77;;
77948;SDS011;67146;51.236;-0.336;2023-11-22T00:28:03;6.07;;;1.10;;
77948;SDS011;67146;51.236;-0.336;2023-11-22T00:33:57;13.88;;;2.20;;
77948;SDS011;67146;51.236;-0.336;2023-11-22T00:36:42;8.52;;;1.58;;
77948;SDS011;67146;51.236;-0.336;2023-11-22T00:39:27;12.80;;;1.88;;
77948;SDS011;67146;51.236;-0.336;2023-11-22T00:44:57;8.25;;;1.60;;
77948;SDS011;67146;51.236;-0.336;2023-11-22T00:47:43;9.48;;;1.40;;
77948;SDS011;67146;51.236;-0.336;2023-11-22T00:50:11;8.15;;;1.45;;
77948;SDS011;67146;51.236;-0.336;2023-11-22T00:52:55;8.13;;;1.35;;
77948;SDS011;67146;51.236;-0.336;2023-11-22T00:55:29;6.65;;;1.40;;
77948;SDS011;67146;51.236;-0.336;2023-11-22T00:57:57;8.85;;;1.27;;
77948;SDS011;67146;51.236;-0.336;2023-11-22T01:03:59;7.72;;;1.30;;
77948;SDS011;67146;51.236;-0.336;2023-11-22T01:06:59;6.25;;;0.90;;
77948;SDS011;67146;51.236;-0.336;2023-11-22T01:09:37;9.95;;;1.00;;
77948;SDS011;67146;51.236;-0.336;2023-11-22T01:12:14;10.48;;;1.13;;
77948;SDS011;67146;51.236;-0.336;2023-11-22T01:14:51;5.32;;;0.90;;
77948;SDS011;67146;51.236;-0.336;2023-11-22T01:17:34;6.40;;;0.80;;
77948;SDS011;67146;51.236;-0.336;2023-11-22T01:20:44;6.38;;;1.05;;
77948;SDS011;67146;51.236;-0.336;2023-11-22T01:23:52;9.45;;;1.17;;
77948;SDS011;67146;51.236;-0.336;2023-11-22T01:26:28;7.78;;;1.10;;
77948;SDS011;67146;51.236;-0.336;2023-11-22T01:29:11;10.05;;;1.10;;
77948;SDS011;67146;51.236;-0.336;2023-11-22T01:32:02;6.90;;;1.08;;
77948;SDS011;67146;51.236;-0.336;2023-11-22T01:34:30;7.50;;;1.05;;
77948;SDS011;67146;51.236;-0.336;2023-11-22T01:37:04;8.15;;;1.10;;
77948;SDS011;67146;51.236;-0.336;2023-11-22T01:39:35;8.45;;;1.00;;
77948;SDS011;67146;51.236;-0.336;2023-11-22T01:42:28;6.15;;;0.80;;
77948;SDS011;67146;51.236;-0.336;2023-11-22T01:45:04;5.90;;;0.88;;
77948;SDS011;67146;51.236;-0.336;2023-11-22T01:47:40;6.53;;;0.77;;
77948;SDS011;67146;51.236;-0.336;2023-11-22T01:50:11;8.07;;;1.63;;
77948;SDS011;67146;51.236;-0.336;2023-11-22T01:55:14;7.55;;;0.82;;
77948;SDS011;67146;51.236;-0.336;2023-11-22T01:58:09;5.72;;;1.10;;
77948;SDS011;67146;51.236;-0.336;2023-11-22T02:00:55;6.93;;;1.42;;
77948;SDS011;67146;51.236;-0.336;2023-11-22T02:03:47;10.60;;;0.93;;
77948;SDS011;67146;51.236;-0.336;2023-11-22T02:06:23;9.20;;;1.08;;
77948;SDS011;67146;51.236;-0.336;2023-11-22T02:08:49;7.82;;;1.23;;
77948;SDS011;67146;51.236;-0.336;2023-11-22T02:14:49;6.75;;;1.10;;
77948;SDS011;67146;51.236;-0.336;2023-11-22T02:17:47;5.80;;;1.08;;
77948;SDS011;67146;51.236;-0.336;2023-11-22T02:20:41;6.30;;;0.95;;
77948;SDS011;67146;51.236;-0.336;2023-11-22T02:23:21;5.95;;;1.13;;
77948;SDS011;67146;51.236;-0.336;2023-11-22T02:25:55;9.93;;;1.75;;
77948;SDS011;67146;51.236;-0.336;2023-11-22T02:28:29;9.43;;;0.95;;
77948;SDS011;67146;51.236;-0.336;2023-11-22T02:31:28;11.43;;;1.70;;
77948;SDS011;67146;51.236;-0.336;2023-11-22T02:34:33;7.93;;;1.30;;
77948;SDS011;67146;51.236;-0.336;2023-11-22T02:37:37;6.50;;;1.35;;
77948;SDS011;67146;51.236;-0.336;2023-11-22T02:40:24;7.13;;;1.05;;
77948;SDS011;67146;51.236;-0.336;2023-11-22T02:43:33;6.03;;;1.00;;
77948;SDS011;67146;51.236;-0.336;2023-11-22T02:46:51;7.88;;;1.27;;
77948;SDS011;67146;51.236;-0.336;2023-11-22T02:49:41;7.60;;;1.10;;
77948;SDS011;67146;51.236;-0.336;2023-11-22T02:52:27;7.68;;;0.80;;
77948;SDS011;67146;51.236;-0.336;2023-11-22T02:57:50;6.32;;;1.17;;
77948;SDS011;67146;51.236;-0.336;2023-11-22T03:00:16;6.82;;;1.20;;
77948;SDS011;67146;51.236;-0.336;2023-11-22T03:02:54;9.00;;;1.25;;
77948;SDS011;67146;51.236;-0.336;2023-11-22T03:05:38;7.57;;;1.65;;
77948;SDS011;67146;51.236;-0.336;2023-11-22T03:08:17;8.23;;;1.08;;
77948;SDS011;67146;51.236;-0.336;2023-11-22T03:11:08;8.90;;;1.50;;
77948;SDS011;67146;51.236;-0.336;2023-11-22T03:13:46;6.97;;;0.93;;
77948;SDS011;67146;51.236;-0.336;2023-11-22T03:16:32;7.95;;;0.88;;
77948;SDS011;67146;51.236;-0.336;2023-11-22T03:19:03;6.93;;;0.88;;
77948;SDS011;67146;51.236;-0.336;2023-11-22T03:21:34;7.65;;;1.13;;
77948;SDS011;67146;51.236;-0.336;2023-11-22T03:27:06;7.00;;;1.30;;
77948;SDS011;67146;51.236;-0.336;2023-11-22T03:29:39;7.22;;;1.42;;
77948;SDS011;67146;51.236;-0.336;2023-11-22T03:32:12;9.10;;;1.45;;
77948;SDS011;67146;51.236;-0.336;2023-11-22T03:34:45;8.10;;;1.27;;
77948;SDS011;67146;51.236;-0.336;2023-11-22T03:37:33;5.97;;;1.15;;
77948;SDS011;67146;51.236;-0.336;2023-11-22T03:40:08;7.60;;;1.13;;
77948;SDS011;67146;51.236;-0.336;2023-11-22T03:43:04;9.38;;;1.65;;
77948;SDS011;67146;51.236;-0.336;2023-11-22T03:45:57;6.97;;;1.58;;
77948;SDS011;67146;51.236;-0.336;2023-11-22T03:48:32;6.72;;;1.80;;
77948;SDS011;67146;51.236;-0.336;2023-11-22T03:51:13;6.65;;;1.13;;
77948;SDS011;67146;51.236;-0.336;2023-11-22T03:53:56;6.95;;;1.08;;
77948;SDS011;67146;51.236;-0.336;2023-11-22T03:56:55;8.10;;;1.05;;
77948;SDS011;67146;51.236;-0.336;2023-11-22T03:59:30;6.88;;;1.13;;
77948;SDS011;67146;51.236;-0.336;2023-11-22T04:02:04;11.77;;;1.55;;
77948;SDS011;67146;51.236;-0.336;2023-11-22T04:04:56;5.40;;;0.90;;
77948;SDS011;67146;51.236;-0.336;2023-11-22T04:07:44;10.52;;;0.95;;
77948;SDS011;67146;51.236;-0.336;2023-11-22T04:10:10;8.70;;;1.15;;
77948;SDS011;67146;51.236;-0.336;2023-11-22T04:12:49;9.60;;;1.30;;
77948;SDS011;67146;51.236;-0.336;2023-11-22T04:15:30;12.30;;;1.50;;
77948;SDS011;67146;51.236;-0.336;2023-11-22T04:18:30;5.72;;;1.25;;
77948;SDS011;67146;51.236;-0.336;2023-11-22T04:21:22;9.25;;;1.30;;
77948;SDS011;67146;51.236;-0.336;2023-11-22T04:23:51;8.07;;;1.17;;
77948;SDS011;67146;51.236;-0.336;2023-11-22T04:26:40;6.22;;;1.42;;
77948;SDS011;67146;51.236;-0.336;2023-11-22T04:29:28;11.45;;;1.30;;
77948;SDS011;67146;51.236;-0.336;2023-11-22T04:32:28;6.20;;;1.08;;
77948;SDS011;67146;51.236;-0.336;2023-11-22T04:35:12;5.72;;;0.95;;
77948;SDS011;67146;51.236;-0.336;2023-11-22T04:38:01;7.63;;;1.30;;
77948;SDS011;67146;51.236;-0.336;2023-11-22T04:40:35;10.48;;;1.52;;
77948;SDS011;67146;51.236;-0.336;2023-11-22T04:43:10;7.15;;;1.00;;
77948;SDS011;67146;51.236;-0.336;2023-11-22T04:46:01;7.78;;;1.45;;
77948;SDS011;67146;51.236;-0.336;2023-11-22T04:48:31;7.05;;;0.95;;
77948;SDS011;67146;51.236;-0.336;2023-11-22T04:51:10;8.38;;;0.98;;
77948;SDS011;67146;51.236;-0.336;2023-11-22T04:53:54;7.80;;;0.93;;
77948;SDS011;67146;51.236;-0.336;2023-11-22T04:56:54;9.93;;;1.15;;
77948;SDS011;67146;51.236;-0.336;2023-11-22T05:02:16;9.27;;;1.42;;
77948;SDS011;67146;51.236;-0.336;2023-11-22T05:04:46;8.27;;;1.52;;
77948;SDS011;67146;51.236;-0.336;2023-11-22T05:07:21;7.82;;;1.65;;
77948;SDS011;67146;51.236;-0.336;2023-11-22T05:09:52;10.75;;;2.28;;
77948;SDS011;67146;51.236;-0.336;2023-11-22T05:12:28;12.57;;;1.80;;
77948;SDS011;67146;51.236;-0.336;2023-11-22T05:15:02;10.35;;;1.73;;
77948;SDS011;67146;51.236;-0.336;2023-11-22T05:17:36;10.80;;;1.63;;
77948;SDS011;67146;51.236;-0.336;2023-11-22T05:20:15;8.93;;;1.88;;
77948;SDS011;67146;51.236;-0.336;2023-11-22T05:26:12;6.55;;;1.75;;
77948;SDS011;67146;51.236;-0.336;2023-11-22T05:28:45;10.93;;;1.63;;
77948;SDS011;67146;51.236;-0.336;2023-11-22T05:31:20;8.60;;;1.35;;
77948;SDS011;67146;51.236;-0.336;2023-11-22T05:34:04;9.00;;;1.67;;
77948;SDS011;67146;51.236;-0.336;2023-11-22T05:37:04;12.70;;;2.53;;
77948;SDS011;67146;51.236;-0.336;2023-11-22T05:39:45;9.13;;;1.83;;
77948;SDS011;67146;51.236;-0.336;2023-11-22T05:42:36;11.68;;;1.85;;
77948;SDS011;67146;51.236;-0.336;2023-11-22T05:45:07;10.73;;;1.65;;
77948;SDS011;67146;51.236;-0.336;2023-11-22T05:47:55;12.55;;;2.35;;
77948;SDS011;67146;51.236;-0.336;2023-11-22T05:50:30;8.50;;;1.52;;
77948;SDS011;67146;51.236;-0.336;2023-11-22T05:53:16;7.55;;;1.65;;
77948;SDS011;67146;51.236;-0.336;2023-11-22T05:55:56;8.20;;;1.85;;
77948;SDS011;67146;51.236;-0.336;2023-11-22T05:58:28;8.57;;;2.28;;
77948;SDS011;67146;51.236;-0.336;2023-11-22T06:00:59;11.13;;;2.50;;
77948;SDS011;67146;51.236;-0.336;2023-11-22T06:03:46;9.77;;;2.58;;
77948;SDS011;67146;51.236;-0.336;2023-11-22T06:06:44;8.95;;;1.95;;
77948;SDS011;67146;51.236;-0.336;2023-11-22T06:09:14;8.25;;;2.55;;
77948;SDS011;67146;51.236;-0.336;2023-11-22T06:11:55;8.48;;;2.05;;
77948;SDS011;67146;51.236;-0.336;2023-11-22T06:14:25;8.95;;;1.88;;
77948;SDS011;67146;51.236;-0.336;2023-11-22T06:17:04;10.70;;;2.25;;
77948;SDS011;67146;51.236;-0.336;2023-11-22T06:19:42;9.05;;;2.38;;
77948;SDS011;67146;51.236;-0.336;2023-11-22T06:22:15;8.63;;;2.22;;
77948;SDS011;67146;51.236;-0.336;2023-11-22T06:27:41;12.73;;;3.50;;
77948;SDS011;67146;51.236;-0.336;2023-11-22T06:30:18;15.35;;;2.97;;
77948;SDS011;67146;51.236;-0.336;2023-11-22T06:32:57;13.48;;;3.10;;
77948;SDS011;67146;51.236;-0.336;2023-11-22T06:38:41;9.57;;;2.85;;
77948;SDS011;67146;51.236;-0.336;2023-11-22T06:41:12;9.95;;;2.45;;
77948;SDS011;67146;51.236;-0.336;2023-11-22T06:44:18;12.35;;;2.92;;
77948;SDS011;67146;51.236;-0.336;2023-11-22T06:47:13;11.98;;;2.60;;
77948;SDS011;67146;51.236;-0.336;2023-11-22T06:50:01;10.18;;;2.65;;
77948;SDS011;67146;51.236;-0.336;2023-11-22T06:52:38;12.63;;;2.80;;
77948;SDS011;67146;51.236;-0.336;2023-11-22T06:55:31;12.30;;;2.08;;
77948;SDS011;67146;51.236;-0.336;2023-11-22T06:58:01;13.13;;;2.60;;
77948;SDS011;67146;51.236;-0.336;2023-11-22T07:00:38;15.43;;;2.83;;
77948;SDS011;67146;51.236;-0.336;2023-11-22T07:53:11;11.93;;;3.13;;
77948;SDS011;67146;51.236;-0.336;2023-11-22T07:55:47;12.25;;;3.05;;
77948;SDS011;67146;51.236;-0.336;2023-11-22T07:58:38;16.10;;;4.20;;
77948;SDS011;67146;51.236;-0.336;2023-11-22T08:01:16;11.00;;;3.53;;
77948;SDS011;67146;51.236;-0.336;2023-11-22T08:03:51;12.80;;;2.65;;
77948;SDS011;67146;51.236;-0.336;2023-11-22T08:06:33;10.30;;;3.15;;
77948;SDS011;67146;51.236;-0.336;2023-11-22T08:09:36;13.23;;;2.78;;
77948;SDS011;67146;51.236;-0.336;2023-11-22T08:12:13;10.02;;;2.60;;
77948;SDS011;67146;51.236;-0.336;2023-11-22T08:15:00;13.45;;;3.22;;
77948;SDS011;67146;51.236;-0.336;2023-11-22T08:17:40;11.50;;;2.90;;
77948;SDS011;67146;51.236;-0.336;2023-11-22T08:20:21;8.18;;;1.80;;
77948;SDS011;67146;51.236;-0.336;2023-11-22T08:23:14;11.80;;;2.55;;
77948;SDS011;67146;51.236;-0.336;2023-11-22T08:26:04;10.52;;;2.45;;
77948;SDS011;67146;51.236;-0.336;2023-11-22T08:28:48;11.10;;;2.50;;
77948;SDS011;67146;51.236;-0.336;2023-11-22T08:31:40;6.60;;;1.80;;
77948;SDS011;67146;51.236;-0.336;2023-11-22T08:34:19;14.85;;;3.17;;
77948;SDS011;67146;51.236;-0.336;2023-11-22T08:36:55;10.93;;;2.60;;
77948;SDS011;67146;51.236;-0.336;2023-11-22T08:39:29;13.27;;;3.55;;
77948;SDS011;67146;51.236;-0.336;2023-11-22T08:42:16;8.15;;;2.33;;
77948;SDS011;67146;51.236;-0.336;2023-11-22T08:45:12;10.05;;;2.78;;
77948;SDS011;67146;51.236;-0.336;2023-11-22T08:47:48;12.75;;;3.85;;
77948;SDS011;67146;51.236;-0.336;2023-11-22T08:50:21;11.85;;;3.20;;
77948;SDS011;67146;51.236;-0.336;2023-11-22T08:52:52;15.38;;;2.95;;
77948;SDS011;67146;51.236;-0.336;2023-11-22T08:58:57;9.77;;;3.40;;
77948;SDS011;67146;51.236;-0.336;2023-11-22T09:01:33;8.27;;;2.67;;
77948;SDS011;67146;51.236;-0.336;2023-11-22T09:04:24;7.95;;;2.03;;
77948;SDS011;67146;51.236;-0.336;2023-11-22T09:10:22;14.18;;;4.15;;
77948;SDS011;67146;51.236;-0.336;2023-11-22T09:16:13;13.02;;;3.47;;
77948;SDS011;67146;51.236;-0.336;2023-11-22T09:19:09;11.80;;;3.35;;
77948;SDS011;67146;51.236;-0.336;2023-11-22T09:22:03;10.02;;;3.20;;
77948;SDS011;67146;51.236;-0.336;2023-11-22T09:27:46;13.48;;;2.72;;
77948;SDS011;67146;51.236;-0.336;2023-11-22T09:30:49;9.70;;;2.80;;
77948;SDS011;67146;51.236;-0.336;2023-11-22T09:43:30;11.90;;;2.47;;
77948;SDS011;67146;51.236;-0.336;2023-11-22T09:46:21;7.70;;;2.10;;
77948;SDS011;67146;51.236;-0.336;2023-11-22T09:51:54;9.98;;;2.13;;
77948;SDS011;67146;51.236;-0.336;2023-11-22T09:54:50;10.30;;;3.88;;
77948;SDS011;67146;51.236;-0.336;2023-11-22T10:01:16;8.48;;;2.00;;
77948;SDS011;67146;51.236;-0.336;2023-11-22T10:14:10;6.20;;;1.65;;
77948;SDS011;67146;51.236;-0.336;2023-11-22T10:17:30;7.43;;;1.25;;
77948;SDS011;67146;51.236;-0.336;2023-11-22T10:20:42;6.68;;;1.63;;
77948;SDS011;67146;51.236;-0.336;2023-11-22T10:26:28;12.25;;;2.20;;
77948;SDS011;67146;51.236;-0.336;2023-11-22T10:30:11;9.80;;;1.92;;
77948;SDS011;67146;51.236;-0.336;2023-11-22T10:35:57;7.47;;;2.28;;
77948;SDS011;67146;51.236;-0.336;2023-11-22T10:38:30;11.13;;;2.60;;
77948;SDS011;67146;51.236;-0.336;2023-11-22T10:41:23;10.10;;;2.63;;
77948;SDS011;67146;51.236;-0.336;2023-11-22T10:44:12;8.85;;;2.20;;
77948;SDS011;67146;51.236;-0.336;2023-11-22T10:47:31;7.03;;;1.45;;
77948;SDS011;67146;51.236;-0.336;2023-11-22T10:50:05;4.43;;;0.80;;
77948;SDS011;67146;51.236;-0.336;2023-11-22T10:52:59;5.97;;;0.95;;
77948;SDS011;67146;51.236;-0.336;2023-11-22T10:58:40;3.63;;;0.63;;
77948;SDS011;67146;51.236;-0.336;2023-11-22T11:01:27;6.38;;;1.33;;
77948;SDS011;67146;51.236;-0.336;2023-11-22T11:04:16;6.38;;;1.23;;
77948;SDS011;67146;51.236;-0.336;2023-11-22T11:13:02;4.93;;;0.93;;
77948;SDS011;67146;51.236;-0.336;2023-11-22T11:19:16;6.53;;;1.17;;
77948;SDS011;67146;51.236;-0.336;2023-11-22T11:21:57;7.10;;;1.02;;
77948;SDS011;67146;51.236;-0.336;2023-11-22T11:24:38;8.95;;;1.52;;
77948;SDS011;67146;51.236;-0.336;2023-11-22T11:34:55;9.27;;;2.20;;
77948;SDS011;67146;51.236;-0.336;2023-11-22T11:44:07;5.45;;;1.25;;
77948;SDS011;67146;51.236;-0.336;2023-11-22T11:50:20;6.78;;;1.00;;
77948;SDS011;67146;51.236;-0.336;2023-11-22T11:56:47;5.80;;;1.38;;
77948;SDS011;67146;51.236;-0.336;2023-11-22T12:03:14;8.32;;;1.48;;
77948;SDS011;67146;51.236;-0.336;2023-11-22T12:06:25;5.00;;;1.20;;
77948;SDS011;67146;51.236;-0.336;2023-11-22T12:09:41;9.32;;;1.13;;
77948;SDS011;67146;51.236;-0.336;2023-11-22T12:12:53;5.05;;;0.93;;
77948;SDS011;67146;51.236;-0.336;2023-11-22T12:16:12;5.93;;;0.77;;
77948;SDS011;67146;51.236;-0.336;2023-11-22T12:19:38;6.63;;;1.45;;
77948;SDS011;67146;51.236;-0.336;2023-11-22T12:22:38;2.80;;;0.47;;
77948;SDS011;67146;51.236;-0.336;2023-11-22T12:25:29;5.40;;;1.42;;
77948;SDS011;67146;51.236;-0.336;2023-11-22T12:32:23;11.27;;;1.85;;
77948;SDS011;67146;51.236;-0.336;2023-11-22T12:35:19;7.55;;;1.58;;
77948;SDS011;67146;51.236;-0.336;2023-11-22T12:41:21;6.20;;;1.95;;
77948;SDS011;67146;51.236;-0.336;2023-11-22T12:47:35;5.82;;;1.40;;
77948;SDS011;67146;51.236;-0.336;2023-11-22T13:01:03;6.53;;;1.23;;
77948;SDS011;67146;51.236;-0.336;2023-11-22T13:07:18;5.45;;;0.98;;
77948;SDS011;67146;51.236;-0.336;2023-11-22T13:20:11;7.20;;;0.70;;
77948;SDS011;67146;51.236;-0.336;2023-11-22T13:23:09;5.80;;;0.95;;
77948;SDS011;67146;51.236;-0.336;2023-11-22T13:35:09;4.70;;;0.82;;
77948;SDS011;67146;51.236;-0.336;2023-11-22T13:41:06;8.20;;;1.50;;
77948;SDS011;67146;51.236;-0.336;2023-11-22T13:44:28;10.15;;;1.40;;
77948;SDS011;67146;51.236;-0.336;2023-11-22T13:47:12;7.68;;;0.98;;
77948;SDS011;67146;51.236;-0.336;2023-11-22T13:50:20;7.88;;;1.23;;
77948;SDS011;67146;51.236;-0.336;2023-11-22T13:56:38;5.68;;;1.02;;
77948;SDS011;67146;51.236;-0.336;2023-11-22T13:59:31;4.30;;;0.57;;
77948;SDS011;67146;51.236;-0.336;2023-11-22T14:12:38;6.00;;;0.75;;
77948;SDS011;67146;51.236;-0.336;2023-11-22T14:15:48;7.22;;;1.10;;
77948;SDS011;67146;51.236;-0.336;2023-11-22T14:18:31;12.93;;;1.08;;
77948;SDS011;67146;51.236;-0.336;2023-11-22T14:21:02;5.60;;;0.95;;
77948;SDS011;67146;51.236;-0.336;2023-11-22T14:23:53;5.38;;;0.55;;
77948;SDS011;67146;51.236;-0.336;2023-11-22T14:29:35;5.55;;;0.95;;
77948;SDS011;67146;51.236;-0.336;2023-11-22T14:32:28;7.97;;;0.85;;
77948;SDS011;67146;51.236;-0.336;2023-11-22T14:35:06;8.70;;;0.93;;
77948;SDS011;67146;51.236;-0.336;2023-11-22T14:41:23;4.53;;;0.77;;
77948;SDS011;67146;51.236;-0.336;2023-11-22T14:44:12;6.15;;;0.80;;
77948;SDS011;67146;51.236;-0.336;2023-11-22T15:10:27;6.25;;;1.02;;
77948;SDS011;67146;51.236;-0.336;2023-11-22T15:13:18;5.05;;;1.00;;
77948;SDS011;67146;51.236;-0.336;2023-11-22T15:15:57;7.30;;;0.88;;
77948;SDS011;67146;51.236;-0.336;2023-11-22T15:18:45;4.07;;;0.52;;
77948;SDS011;67146;51.236;-0.336;2023-11-22T15:37:48;7.80;;;1.30;;
77948;SDS011;67146;51.236;-0.336;2023-11-22T15:41:18;8.35;;;1.45;;
77948;SDS011;67146;51.236;-0.336;2023-11-22T15:44:11;7.70;;;1.63;;
77948;SDS011;67146;51.236;-0.336;2023-11-22T15:46:55;9.43;;;1.45;;
77948;SDS011;67146;51.236;-0.336;2023-11-22T16:06:21;6.45;;;1.02;;
77948;SDS011;67146;51.236;-0.336;2023-11-22T16:08:48;7.63;;;1.23;;
77948;SDS011;67146;51.236;-0.336;2023-11-22T16:11:24;5.90;;;1.30;;
77948;SDS011;67146;51.236;-0.336;2023-11-22T16:14:37;7.68;;;1.20;;
77948;SDS011;67146;51.236;-0.336;2023-11-22T16:17:40;9.65;;;1.40;;
77948;SDS011;67146;51.236;-0.336;2023-11-22T16:23:27;6.55;;;1.65;;
77948;SDS011;67146;51.236;-0.336;2023-11-22T16:26:38;8.32;;;1.25;;
77948;SDS011;67146;51.236;-0.336;2023-11-22T16:29:39;8.35;;;1.77;;
77948;SDS011;67146;51.236;-0.336;2023-11-22T17:40:26;11.77;;;2.42;;
77948;SDS011;67146;51.236;-0.336;2023-11-22T17:43:25;8.95;;;2.15;;
77948;SDS011;67146;51.236;-0.336;2023-11-22T17:49:45;8.85;;;2.83;;
77948;SDS011;67146;51.236;-0.336;2023-11-22T17:59:08;9.30;;;2.67;;
77948;SDS011;67146;51.236;-0.336;2023-11-22T18:02:14;9.55;;;2.72;;
77948;SDS011;67146;51.236;-0.336;2023-11-22T18:05:12;7.80;;;2.58;;
77948;SDS011;67146;51.236;-0.336;2023-11-22T18:11:36;8.23;;;2.60;;
77948;SDS011;67146;51.236;-0.336;2023-11-22T18:14:19;10.07;;;2.72;;
77948;SDS011;67146;51.236;-0.336;2023-11-22T18:23:10;8.85;;;2.17;;
77948;SDS011;67146;51.236;-0.336;2023-11-22T18:26:14;6.05;;;2.33;;
77948;SDS011;67146;51.236;-0.336;2023-11-22T18:29:07;6.82;;;2.38;;
77948;SDS011;67146;51.236;-0.336;2023-11-22T18:31:55;6.07;;;2.05;;
77948;SDS011;67146;51.236;-0.336;2023-11-22T18:35:18;4.90;;;1.58;;
77948;SDS011;67146;51.236;-0.336;2023-11-22T18:38:20;12.40;;;1.83;;
77948;SDS011;67146;51.236;-0.336;2023-11-22T18:44:30;11.38;;;3.15;;
77948;SDS011;67146;51.236;-0.336;2023-11-22T18:47:27;8.00;;;2.40;;
77948;SDS011;67146;51.236;-0.336;2023-11-22T18:53:42;5.88;;;1.73;;
77948;SDS011;67146;51.236;-0.336;2023-11-22T19:03:20;6.85;;;2.35;;
77948;SDS011;67146;51.236;-0.336;2023-11-22T19:07:11;10.18;;;2.90;;
77948;SDS011;67146;51.236;-0.336;2023-11-22T19:10:04;7.53;;;2.28;;
77948;SDS011;67146;51.236;-0.336;2023-11-22T19:12:58;10.75;;;2.67;;
77948;SDS011;67146;51.236;-0.336;2023-11-22T19:26:33;7.57;;;2.22;;
77948;SDS011;67146;51.236;-0.336;2023-11-22T19:29:52;8.27;;;2.30;;
77948;SDS011;67146;51.236;-0.336;2023-11-22T19:39:49;8.98;;;2.65;;
77948;SDS011;67146;51.236;-0.336;2023-11-22T19:50:02;5.85;;;2.10;;
77948;SDS011;67146;51.236;-0.336;2023-11-22T19:53:05;9.30;;;2.47;;
77948;SDS011;67146;51.236;-0.336;2023-11-22T21:00:12;9.07;;;2.80;;
77948;SDS011;67146;51.236;-0.336;2023-11-22T21:03:04;9.15;;;2.55;;
77948;SDS011;67146;51.236;-0.336;2023-11-22T21:17:38;12.52;;;4.18;;
77948;SDS011;67146;51.236;-0.336;2023-11-22T21:20:30;11.05;;;3.38;;
77948;SDS011;67146;51.236;-0.336;2023-11-22T21:23:14;11.20;;;3.85;;
77948;SDS011;67146;51.236;-0.336;2023-11-22T21:26:19;12.88;;;3.95;;
77948;SDS011;67146;51.236;-0.336;2023-11-22T21:35:25;10.57;;;4.18;;
77948;SDS011;67146;51.236;-0.336;2023-11-22T21:38:16;11.82;;;3.95;;
77948;SDS011;67146;51.236;-0.336;2023-11-22T21:41:02;10.45;;;4.80;;
77948;SDS011;67146;51.236;-0.336;2023-11-22T21:43:30;12.38;;;4.45;;
77948;SDS011;67146;51.236;-0.336;2023-11-22T21:46:07;9.85;;;3.80;;
77948;SDS011;67146;51.236;-0.336;2023-11-22T21:49:05;10.40;;;4.55;;
77948;SDS011;67146;51.236;-0.336;2023-11-22T21:51:45;13.15;;;3.78;;
77948;SDS011;67146;51.236;-0.336;2023-11-22T21:54:12;9.13;;;3.53;;
77948;SDS011;67146;51.236;-0.336;2023-11-22T21:56:58;8.73;;;3.70;;
77948;SDS011;67146;51.236;-0.336;2023-11-22T21:59:36;10.50;;;4.60;;
77948;SDS011;67146;51.236;-0.336;2023-11-22T22:02:14;10.32;;;3.75;;
77948;SDS011;67146;51.236;-0.336;2023-11-22T22:04:42;10.07;;;3.83;;
77948;SDS011;67146;51.236;-0.336;2023-11-22T22:07:18;9.68;;;3.63;;
77948;SDS011;67146;51.236;-0.336;2023-11-22T22:09:54;9.32;;;3.35;;
77948;SDS011;67146;51.236;-0.336;2023-11-22T22:12:32;12.80;;;3.67;;
77948;SDS011;67146;51.236;-0.336;2023-11-22T22:15:03;13.63;;;4.18;;
77948;SDS011;67146;51.236;-0.336;2023-11-22T22:17:35;11.60;;;3.78;;
77948;SDS011;67146;51.236;-0.336;2023-11-22T22:20:26;12.38;;;3.60;;
77948;SDS011;67146;51.236;-0.336;2023-11-22T22:23:14;11.25;;;3.20;;
77948;SDS011;67146;51.236;-0.336;2023-11-22T22:26:15;10.63;;;2.90;;
77948;SDS011;67146;51.236;-0.336;2023-11-22T22:29:06;10.48;;;2.92;;
77948;SDS011;67146;51.236;-0.336;2023-11-22T22:34:23;12.00;;;3.20;;
77948;SDS011;67146;51.236;-0.336;2023-11-22T22:36:56;11.40;;;3.05;;
77948;SDS011;67146;51.236;-0.336;2023-11-22T22:39:34;8.77;;;2.97;;
77948;SDS011;67146;51.236;-0.336;2023-11-22T22:42:03;9.10;;;2.70;;
77948;SDS011;67146;51.236;-0.336;2023-11-22T22:44:37;9.43;;;3.15;;
77948;SDS011;67146;51.236;-0.336;2023-11-22T22:47:19;9.60;;;3.17;;
77948;SDS011;67146;51.236;-0.336;2023-11-22T22:50:06;9.07;;;2.88;;
77948;SDS011;67146;51.236;-0.336;2023-11-22T22:56:08;9.10;;;3.03;;
77948;SDS011;67146;51.236;-0.336;2023-11-22T22:58:54;12.45;;;3.58;;
77948;SDS011;67146;51.236;-0.336;2023-11-22T23:04:59;8.10;;;2.47;;
77948;SDS011;67146;51.236;-0.336;2023-11-22T23:07:46;8.98;;;2.85;;
77948;SDS011;67146;51.236;-0.336;2023-11-22T23:14:14;8.70;;;2.10;;
77948;SDS011;67146;51.236;-0.336;2023-11-22T23:17:41;7.60;;;2.70;;
77948;SDS011;67146;51.236;-0.336;2023-11-22T23:23:52;9.50;;;2.80;;
77948;SDS011;67146;51.236;-0.336;2023-11-22T23:33:37;8.38;;;2.50;;
77948;SDS011;67146;51.236;-0.336;2023-11-22T23:39:44;9.52;;;2.25;;
77948;SDS011;67146;51.236;-0.336;2023-11-22T23:42:50;6.68;;;1.45;;
77948;SDS011;67146;51.236;-0.336;2023-11-22T23:45:55;5.70;;;1.38;;
77948;SDS011;67146;51.236;-0.336;2023-11-22T23:52:26;7.47;;;1.30;;
77948;SDS011;67146;51.236;-0.336;2023-11-22T23:59:19;6.25;;;1.00;;
